الصفحة الرئيسية
METAR-TAF:

METAR-TAF

مطار :

مطار باماكو موديبو كيتا الدولي

باماكو, مالي

دائرة عرض: 12-32N, خط طول: 007-57W, ارتفاع: 380 متر

مراقبة الطقس الحالي

تاريخ ووقت الإصدار 33 دقيقة قبل الساعة 22:30UTC
ريح 4 عقدة من الشمال
درجة الحرارة 31°درجة مئوية
الرطوبة 36%
ضغط 1013 hPa
الرؤية 10 كم أو أكثر
الغيوم لا تقل 1500 م ولا وجود لمزنة ركامية السحاب الأسود

METAR: GABS 232230Z 35004KT CAVOK 31/14 Q1013 NOSIG

زمن: 23:03 (23:03 UTC)

توقعات

تاريخ ووقت الإصدار 6ساعات و 3 دقيقة قبل الساعة 17:00UTC
التوقعات صالحة من23 الساعة 18 UTC إلى 24 الساعة 24 UTC
ريح 6 عقدة من الشمال/الشمال الغربي
الرؤية 10 كم أو أكثر
الغيوم لا تقل 1500 م ولا وجود لمزنة ركامية السحاب الأسود
مؤقت
من 23 الساعة 18 UTC إلى 24 الساعة 06 UTC
الرؤية: 4000 متر
غيوم متفرقة على ارتفاع 3000 قدم
غيوم قليلة على ارتفاع 4000 قدم, مزنة ركامية.
عاصفة رعدية, زخات من المطر

TAF: GABS 231700Z 2318/2424 33006KT CAVOK TEMPO 2318/2406 4000 TS SHRA SCT030 FEW040CB

أرصاد الطقس والتوقعات من أكثر من 4000 مطار (تقارير الطقس للمطار METAR والتنبؤ بالطقس بالمطارTAF).

المحطات المتاحة هي النقط الصفراء والحمراء على الخريطة.

حرك المؤشر فوق النقطة لمعرفة اسم المحطة.

ثم انقر لمعرفة أرصاد وتوقعات الطقس.

لتغيير الخارطة: اضغط على الأزرار الخضراء مع رمز الصليب الأسود للتكبير. على الزر الأخضر مع شرطة للتصغير، أو على الأسهم الخضراء للخرائط المجاورة.


METAR-TAF: